This is the latest recevied weather packets stored in our database for station/object OE3PDB-3. If no packets are shown the sender has not sent any weather packets the latest 1 day(s).
| Time | Temp. | Humidity | Pressure | Rain* | Wind** | Luminosity | Snow |
|---|---|---|---|---|---|---|---|
| 1777975244 | 21.11° C | 44% | 1008.1 hPa | 0 mm | 0 m/s | - | - |
| 1777974644 | 21.67° C | 44% | 1008.2 hPa | 0 mm | 0 m/s | - | - |
| 1777974044 | 21.67° C | 44% | 1008.3 hPa | 0 mm | 0 m/s | - | - |
| 1777973445 | 21.11° C | 43% | 1008.5 hPa | 0 mm | 0 m/s | - | - |
| 1777972845 | 21.67° C | 42% | 1008.5 hPa | 0 mm | 0 m/s | - | - |
| 1777972244 | 22.22° C | 42% | 1008.6 hPa | 0 mm | 0 m/s | - | - |
| 1777971644 | 22.78° C | 42% | 1008.6 hPa | 0 mm | 0 m/s | - | - |
| 1777971045 | 22.78° C | 42% | 1008.7 hPa | 0 mm | 0 m/s | - | - |
| 1777970445 | 22.78° C | 42% | 1008.6 hPa | 0 mm | 0 m/s | - | - |
| 1777969845 | 22.78° C | 41% | 1008.7 hPa | 0 mm | 0 m/s | - | - |
| 1777969245 | 23.33° C | 42% | 1008.8 hPa | 0 mm | 0 m/s | - | - |
| 1777968645 | 23.33° C | 43% | 1008.8 hPa | 0 mm | 0 m/s | - | - |
| 1777968045 | 22.78° C | 42% | 1008.8 hPa | 0 mm | 0 m/s | - | - |
| 1777967445 | 22.78° C | 42% | 1008.8 hPa | 0 mm | 0 m/s | - | - |
| 1777966845 | 22.78° C | 42% | 1008.9 hPa | 0 mm | 0 m/s | - | - |
| 1777966245 | 22.78° C | 45% | 1008.9 hPa | 0 mm | 0 m/s | - | - |
| 1777965645 | 22.22° C | 46% | 1008.9 hPa | 0 mm | 0 m/s | - | - |
| 1777965045 | 21.11° C | 51% | 1008.9 hPa | 0 mm | 0 m/s | - | - |
| 1777964445 | 19.44° C | 57% | 1008.9 hPa | 0 mm | 0 m/s | - | - |
| 1777963845 | 15.56° C | 65% | 1008.9 hPa | 0 mm | 0 m/s | - | - |
| 1777963245 | 15° C | 63% | 1009 hPa | 0 mm | 0 m/s | - | - |
| 1777962645 | 15° C | 64% | 1009 hPa | 0 mm | 0 m/s | - | - |
| 1777962045 | 14.44° C | 64% | 1008.9 hPa | 0 mm | 0 m/s | - | - |
| 1777961445 | 14.44° C | 63% | 1009 hPa | 0 mm | 0 m/s | - | - |
| 1777960845 | 15° C | 63% | 1008.9 hPa | 0 mm | 0 m/s | - | - |
* Rain latest hour (hover to see other rain measurements)
** Current wind speed in m/s (hover to see current wind gust speed)